createdAt,value
2024-03-15T00:03:03.839Z,10.65
2024-03-15T00:06:28.347Z,10.67
2024-03-15T00:09:51.823Z,10.66
2024-03-15T00:13:14.852Z,10.71
2024-03-15T00:16:37.848Z,10.77
2024-03-15T00:20:00.980Z,10.78
2024-03-15T00:23:24.750Z,10.77
2024-03-15T00:26:48.356Z,10.78
2024-03-15T00:30:12.446Z,10.74
2024-03-15T00:33:36.784Z,10.70
2024-03-15T00:37:00.277Z,10.65
2024-03-15T00:40:23.425Z,10.59
2024-03-15T00:43:47.898Z,10.50
2024-03-15T00:47:11.549Z,10.39
2024-03-15T00:50:34.983Z,10.30
2024-03-15T00:53:57.835Z,10.20
2024-03-15T00:57:20.933Z,10.07
2024-03-15T01:00:48.131Z,9.97
2024-03-15T01:04:11.687Z,9.84
2024-03-15T01:07:34.729Z,9.76
2024-03-15T01:10:59.275Z,9.67
2024-03-15T01:14:22.744Z,9.61
2024-03-15T01:17:46.354Z,9.57
2024-03-15T01:21:09.381Z,9.53
2024-03-15T01:24:32.979Z,9.48
2024-03-15T01:27:55.961Z,9.48
2024-03-15T01:31:19.410Z,9.45
2024-03-15T01:34:43.072Z,9.47
2024-03-15T01:38:06.786Z,9.43
2024-03-15T01:41:30.191Z,9.42
2024-03-15T01:44:53.388Z,9.41
2024-03-15T01:48:18.637Z,9.38
2024-03-15T01:51:42.674Z,9.36
2024-03-15T01:55:06.871Z,9.32
2024-03-15T01:58:30.693Z,9.29
2024-03-15T02:02:01.955Z,9.23
2024-03-15T02:05:25.379Z,9.19
2024-03-15T02:08:48.412Z,9.13
2024-03-15T02:12:12.043Z,9.07
2024-03-15T02:15:35.966Z,9.00
2024-03-15T02:19:01.212Z,8.96
2024-03-15T02:22:24.865Z,8.92
2024-03-15T02:25:48.357Z,8.90
2024-03-15T02:29:13.651Z,8.89
2024-03-15T02:32:38.469Z,8.89
2024-03-15T02:36:01.867Z,8.93
2024-03-15T02:39:26.117Z,8.96
2024-03-15T02:42:50.071Z,8.97
2024-03-15T02:46:13.627Z,9.00
2024-03-15T02:49:38.035Z,8.99
2024-03-15T02:53:01.635Z,8.97
2024-03-15T02:56:24.690Z,8.96
2024-03-15T02:59:47.869Z,8.89
2024-03-15T03:03:13.210Z,8.84
2024-03-15T03:06:38.333Z,8.78
2024-03-15T03:10:02.445Z,8.74
2024-03-15T03:13:25.918Z,8.71
2024-03-15T03:16:49.651Z,8.68
2024-03-15T03:20:20.569Z,8.64
2024-03-15T03:23:44.124Z,8.62
2024-03-15T03:27:07.780Z,8.58
2024-03-15T03:30:31.345Z,8.56
2024-03-15T03:33:54.216Z,8.55
2024-03-15T03:37:17.814Z,8.52
2024-03-15T03:40:40.905Z,8.55
2024-03-15T03:44:04.713Z,8.61
2024-03-15T03:47:30.154Z,8.68
2024-03-15T03:50:53.542Z,8.76
2024-03-15T03:54:17.405Z,8.84
2024-03-15T03:57:45.256Z,8.95
2024-03-15T04:01:09.738Z,9.05
2024-03-15T04:04:34.901Z,9.09
2024-03-15T04:07:57.849Z,9.15
2024-03-15T04:11:21.059Z,9.18
2024-03-15T04:14:51.119Z,9.19
2024-03-15T04:18:19.400Z,9.18
2024-03-15T04:21:44.164Z,9.16
2024-03-15T04:25:08.346Z,9.14
2024-03-15T04:28:31.791Z,9.11
2024-03-15T04:31:56.721Z,9.08
2024-03-15T04:35:20.205Z,9.07
2024-03-15T04:38:45.265Z,9.05
2024-03-15T04:42:09.529Z,9.02
2024-03-15T04:45:32.760Z,9.00
2024-03-15T04:48:56.121Z,9.00
2024-03-15T04:52:19.440Z,9.02
2024-03-15T04:55:42.761Z,9.04
2024-03-15T04:59:05.745Z,9.07
2024-03-15T05:02:29.918Z,9.09
2024-03-15T05:05:53.183Z,9.16
2024-03-15T05:09:16.795Z,9.21
2024-03-15T05:12:40.147Z,9.24
2024-03-15T05:16:03.341Z,9.25
2024-03-15T05:19:30.877Z,9.29
2024-03-15T05:22:59.280Z,9.29
2024-03-15T05:26:22.786Z,9.27
2024-03-15T05:29:46.178Z,9.24
2024-03-15T05:33:09.428Z,9.23
2024-03-15T05:36:32.911Z,9.20
2024-03-15T05:39:55.955Z,9.18
2024-03-15T05:43:19.608Z,9.14
2024-03-15T05:46:43.066Z,9.12
2024-03-15T05:50:07.843Z,9.10
2024-03-15T05:53:31.061Z,9.10
2024-03-15T05:56:54.714Z,9.10
2024-03-15T06:00:22.339Z,9.10
2024-03-15T06:03:45.666Z,9.14
2024-03-15T06:07:08.974Z,9.19
2024-03-15T06:10:32.296Z,9.23
2024-03-15T06:13:55.610Z,9.27
2024-03-15T06:17:20.765Z,9.32
2024-03-15T06:20:44.092Z,9.40
2024-03-15T06:24:07.428Z,9.44
2024-03-15T06:27:30.824Z,9.50
2024-03-15T06:30:56.571Z,9.54
2024-03-15T06:34:24.868Z,9.57
2024-03-15T06:37:49.975Z,9.57
2024-03-15T06:41:15.885Z,9.56
2024-03-15T06:44:47.382Z,9.55
2024-03-15T06:48:18.780Z,9.55
2024-03-15T06:52:04.874Z,9.55
2024-03-15T06:55:30.013Z,9.57
2024-03-15T06:58:53.379Z,9.59
2024-03-15T07:02:16.912Z,9.63
2024-03-15T07:05:40.472Z,9.64
2024-03-15T07:09:09.309Z,9.71
2024-03-15T07:12:32.834Z,9.80
2024-03-15T07:15:56.428Z,9.88
2024-03-15T07:19:20.742Z,9.98
2024-03-15T07:22:44.871Z,10.06
2024-03-15T07:26:11.984Z,10.18
2024-03-15T07:29:35.281Z,10.27
2024-03-15T07:32:58.352Z,10.37
2024-03-15T07:36:22.120Z,10.43
2024-03-15T07:39:47.098Z,10.49
2024-03-15T07:43:10.948Z,10.54
2024-03-15T07:46:35.944Z,10.57
2024-03-15T07:49:59.276Z,10.62
2024-03-15T07:53:22.780Z,10.68
2024-03-15T07:56:46.280Z,10.75
2024-03-15T08:00:10.913Z,10.81
2024-03-15T08:03:34.850Z,10.85
2024-03-15T08:06:58.535Z,10.88
2024-03-15T08:10:24.500Z,10.94
2024-03-15T08:13:48.714Z,10.96
2024-03-15T08:17:12.769Z,10.99
2024-03-15T08:20:37.345Z,11.03
2024-03-15T08:24:05.510Z,11.05
2024-03-15T08:27:31.064Z,11.10
2024-03-15T08:30:55.183Z,11.18
2024-03-15T08:34:20.426Z,11.24
2024-03-15T08:37:45.168Z,11.32
2024-03-15T08:44:35.865Z,11.45
2024-03-15T08:48:04.726Z,11.55
2024-03-15T08:51:28.297Z,11.63
2024-03-15T08:54:52.055Z,11.70
2024-03-15T08:58:15.857Z,11.82
2024-03-15T09:01:39.448Z,11.90
2024-03-15T09:05:11.085Z,11.96
2024-03-15T09:08:35.759Z,11.99
2024-03-15T09:11:58.985Z,11.98
2024-03-15T09:15:23.636Z,12.04
2024-03-15T09:18:46.656Z,12.10
2024-03-15T09:22:13.209Z,12.12
2024-03-15T09:25:36.745Z,12.17
2024-03-15T09:29:02.231Z,12.21
2024-03-15T09:32:32.777Z,12.25
2024-03-15T09:35:57.541Z,12.30
2024-03-15T09:39:21.408Z,12.34
2024-03-15T09:42:47.730Z,12.40
2024-03-15T09:46:12.905Z,12.45
2024-03-15T09:49:36.058Z,12.51
2024-03-15T09:53:00.483Z,12.60
2024-03-15T09:56:23.821Z,12.71
2024-03-15T09:59:47.283Z,12.82
2024-03-15T10:03:10.735Z,12.91
2024-03-15T10:06:35.536Z,13.02
2024-03-15T10:09:59.231Z,13.11
2024-03-15T10:13:23.471Z,13.20
2024-03-15T10:16:46.964Z,13.28
2024-03-15T10:20:13.740Z,13.43
2024-03-15T10:23:37.684Z,13.55
2024-03-15T10:27:00.793Z,13.64
2024-03-15T10:30:25.055Z,13.78
2024-03-15T10:33:48.718Z,13.94
2024-03-15T10:37:12.438Z,14.08
2024-03-15T10:40:37.298Z,14.19
2024-03-15T10:44:01.934Z,14.29
2024-03-15T10:47:25.666Z,14.39
2024-03-15T10:50:49.005Z,14.47
2024-03-15T10:54:12.108Z,14.49
2024-03-15T10:57:35.963Z,14.51
2024-03-15T11:00:59.981Z,14.59
2024-03-15T11:04:23.561Z,14.69
2024-03-15T11:07:47.655Z,14.80
2024-03-15T11:11:12.114Z,14.94
2024-03-15T11:14:36.586Z,15.04
2024-03-15T11:18:01.100Z,15.21
2024-03-15T11:21:25.332Z,15.33
2024-03-15T11:24:51.513Z,15.49
2024-03-15T11:28:15.647Z,15.68
2024-03-15T11:31:39.739Z,15.83
2024-03-15T11:35:03.538Z,15.95
2024-03-15T11:38:28.820Z,15.93
2024-03-15T11:41:52.531Z,15.89
2024-03-15T11:45:16.157Z,15.84
2024-03-15T11:48:39.647Z,15.86
2024-03-15T11:52:02.903Z,15.91
2024-03-15T11:55:26.214Z,15.99
2024-03-15T11:58:50.404Z,16.08
2024-03-15T12:02:13.995Z,16.12
2024-03-15T12:05:38.865Z,16.17
2024-03-15T12:09:05.542Z,16.22
2024-03-15T12:12:28.605Z,16.21
2024-03-15T12:15:52.043Z,16.19
2024-03-15T12:19:16.655Z,16.22
2024-03-15T12:22:40.314Z,16.31
2024-03-15T12:26:03.352Z,16.36
2024-03-15T12:29:26.738Z,16.35
2024-03-15T12:32:50.171Z,16.41
2024-03-15T12:36:13.755Z,16.40
2024-03-15T12:39:37.869Z,16.48
2024-03-15T12:43:01.659Z,16.57
2024-03-15T12:46:25.155Z,16.74
2024-03-15T12:49:48.509Z,16.93
2024-03-15T12:53:13.663Z,17.14
2024-03-15T12:56:37.035Z,17.34
2024-03-15T13:00:00.620Z,17.55
2024-03-15T13:03:24.522Z,17.69
2024-03-15T13:06:48.425Z,17.69
2024-03-15T13:10:11.681Z,17.62
2024-03-15T13:13:36.582Z,17.52
2024-03-15T13:17:00.477Z,17.46
2024-03-15T13:20:24.895Z,17.42
2024-03-15T13:23:49.146Z,17.26
2024-03-15T13:27:12.818Z,17.17
2024-03-15T13:30:37.457Z,17.19
2024-03-15T13:34:01.813Z,17.27
2024-03-15T13:37:25.260Z,17.30
2024-03-15T13:40:51.470Z,17.27
2024-03-15T13:44:14.859Z,17.19
2024-03-15T13:47:39.315Z,17.11
2024-03-15T13:51:02.610Z,17.12
2024-03-15T13:54:29.654Z,17.12
2024-03-15T13:57:53.413Z,17.09
2024-03-15T14:01:20.053Z,17.09
2024-03-15T14:04:44.821Z,17.10
2024-03-15T14:08:08.362Z,17.09
2024-03-15T14:11:33.132Z,17.09
2024-03-15T14:14:57.180Z,17.10
2024-03-15T14:18:20.480Z,17.15
2024-03-15T14:21:43.758Z,17.21
2024-03-15T14:25:07.420Z,17.29
2024-03-15T14:28:30.609Z,17.30
2024-03-15T14:31:54.794Z,17.31
2024-03-15T14:35:17.975Z,17.34
2024-03-15T14:38:43.394Z,17.35
2024-03-15T14:42:06.856Z,17.36
2024-03-15T14:45:32.348Z,17.33
2024-03-15T14:48:56.480Z,17.28
2024-03-15T14:52:19.776Z,17.20
2024-03-15T14:56:25.038Z,17.10
2024-03-15T14:59:50.278Z,16.97
2024-03-15T15:03:16.561Z,16.83
2024-03-15T15:06:42.414Z,16.65
2024-03-15T15:10:11.564Z,16.48
2024-03-15T15:13:37.530Z,16.30
2024-03-15T15:17:03.855Z,16.17
2024-03-15T15:20:30.289Z,16.03
2024-03-15T15:23:55.945Z,15.92
2024-03-15T15:27:20.936Z,15.81
2024-03-15T15:30:49.530Z,15.70
2024-03-15T15:34:17.115Z,15.64
2024-03-15T15:37:42.758Z,15.58
2024-03-15T15:41:09.488Z,15.53
2024-03-15T15:44:34.705Z,15.44
2024-03-15T15:48:00.348Z,15.35
2024-03-15T15:51:29.198Z,15.27
2024-03-15T15:54:54.815Z,15.21
2024-03-15T15:58:20.537Z,15.14
2024-03-15T16:01:46.082Z,15.07
2024-03-15T16:05:13.501Z,15.01
2024-03-15T16:08:43.016Z,14.95
2024-03-15T16:12:10.045Z,14.89
2024-03-15T16:15:35.793Z,14.85
2024-03-15T16:19:06.885Z,14.79
2024-03-15T16:22:38.482Z,14.74
2024-03-15T16:26:04.836Z,14.69
2024-03-15T16:29:30.207Z,14.60
2024-03-15T16:33:01.704Z,14.55
2024-03-15T16:36:29.606Z,14.47
2024-03-15T16:39:55.363Z,14.37
2024-03-15T16:43:23.808Z,14.28
2024-03-15T16:46:48.994Z,14.19
2024-03-15T16:50:13.950Z,14.10
2024-03-15T16:53:39.679Z,14.02
2024-03-15T16:57:05.095Z,13.95
2024-03-15T17:00:32.154Z,13.89
2024-03-15T17:03:57.362Z,13.83
2024-03-15T17:07:23.012Z,13.75
2024-03-15T17:10:49.749Z,13.69
2024-03-15T17:14:14.916Z,13.63
2024-03-15T17:17:40.129Z,13.57
2024-03-15T17:21:07.168Z,13.50
2024-03-15T17:24:32.768Z,13.44
2024-03-15T17:27:58.498Z,13.39
2024-03-15T17:31:23.945Z,13.34
2024-03-15T17:34:49.464Z,13.30
2024-03-15T17:38:14.714Z,13.26
2024-03-15T17:41:40.067Z,13.19
2024-03-15T17:45:11.058Z,13.14
2024-03-15T17:48:36.730Z,13.08
2024-03-15T17:52:03.199Z,13.04
2024-03-15T17:55:28.418Z,13.02
2024-03-15T17:58:54.289Z,12.98
2024-03-15T18:02:20.062Z,12.94
2024-03-15T18:05:45.346Z,12.89
2024-03-15T18:09:11.042Z,12.84
2024-03-15T18:12:36.502Z,12.78
2024-03-15T18:16:01.926Z,12.74
2024-03-15T18:19:30.021Z,12.68
2024-03-15T18:22:55.889Z,12.63
2024-03-15T18:26:21.969Z,12.56
2024-03-15T18:29:48.039Z,12.50
2024-03-15T18:33:13.205Z,12.45
2024-03-15T18:36:38.231Z,12.40
2024-03-15T18:40:04.043Z,12.35
2024-03-15T18:43:29.724Z,12.31
2024-03-15T18:46:55.192Z,12.26
2024-03-15T18:50:21.898Z,12.24
2024-03-15T18:53:47.573Z,12.20
2024-03-15T18:57:14.350Z,12.19
2024-03-15T19:00:41.001Z,12.18
2024-03-15T19:04:06.818Z,12.18
2024-03-15T19:07:33.282Z,12.15
2024-03-15T19:10:59.926Z,12.12
2024-03-15T19:14:27.704Z,12.11
2024-03-15T19:17:52.773Z,12.12
2024-03-15T19:21:18.678Z,12.13
2024-03-15T19:24:44.537Z,12.15
2024-03-15T19:28:10.008Z,12.17
2024-03-15T19:31:35.561Z,12.17
2024-03-15T19:35:01.020Z,12.16
2024-03-15T19:38:26.214Z,12.13
2024-03-15T19:41:51.684Z,12.08
2024-03-15T19:45:19.224Z,12.01
2024-03-15T19:48:45.040Z,11.96
2024-03-15T19:52:10.872Z,11.89
2024-03-15T19:55:39.896Z,11.81
2024-03-15T19:59:05.545Z,11.76
2024-03-15T20:02:30.962Z,11.68
2024-03-15T20:05:58.831Z,11.61
2024-03-15T20:09:25.715Z,11.54
2024-03-15T20:12:51.531Z,11.47
2024-03-15T20:16:19.893Z,11.41
2024-03-15T20:19:47.059Z,11.35
2024-03-15T20:23:13.024Z,11.30
2024-03-15T20:26:38.358Z,11.24
2024-03-15T20:30:05.530Z,11.19
2024-03-15T20:33:31.654Z,11.14
2024-03-15T20:36:58.148Z,11.09
2024-03-15T20:40:24.197Z,11.04
2024-03-15T20:43:49.500Z,11.03
2024-03-15T20:47:15.294Z,11.02
2024-03-15T20:50:44.304Z,11.01
2024-03-15T20:54:09.982Z,11.00
2024-03-15T20:57:35.509Z,11.02
2024-03-15T21:01:03.412Z,11.03
2024-03-15T21:04:29.616Z,11.04
2024-03-15T21:07:55.989Z,11.03
2024-03-15T21:11:22.645Z,11.02
2024-03-15T21:14:50.854Z,10.99
2024-03-15T21:18:17.231Z,10.97
2024-03-15T21:21:43.851Z,10.94
2024-03-15T21:25:11.909Z,10.90
2024-03-15T21:28:39.303Z,10.86
2024-03-15T21:32:05.294Z,10.81
2024-03-15T21:35:33.463Z,10.76
2024-03-15T21:38:59.005Z,10.71
2024-03-15T21:42:24.762Z,10.65
2024-03-15T21:45:55.375Z,10.60
2024-03-15T21:49:20.718Z,10.54
2024-03-15T21:52:48.148Z,10.51
2024-03-15T21:56:14.206Z,10.50
2024-03-15T21:59:45.137Z,10.51
2024-03-15T22:03:10.940Z,10.54
2024-03-15T22:06:40.343Z,10.56
2024-03-15T22:10:07.514Z,10.60
2024-03-15T22:13:32.788Z,10.67
2024-03-15T22:16:58.107Z,10.70
2024-03-15T22:20:24.694Z,10.75
2024-03-15T22:23:50.461Z,10.76
2024-03-15T22:27:16.475Z,10.76
2024-03-15T22:30:41.937Z,10.75
2024-03-15T22:34:07.764Z,10.73
2024-03-15T22:37:32.884Z,10.72
2024-03-15T22:40:58.277Z,10.70
2024-03-15T22:44:23.971Z,10.71
2024-03-15T22:47:49.385Z,10.69
2024-03-15T22:51:15.040Z,10.66
2024-03-15T22:54:40.609Z,10.63
2024-03-15T22:58:08.127Z,10.61
2024-03-15T23:01:39.351Z,10.60
2024-03-15T23:05:05.302Z,10.59
2024-03-15T23:08:31.090Z,10.60
2024-03-15T23:11:57.234Z,10.64
2024-03-15T23:15:24.016Z,10.67
2024-03-15T23:18:49.831Z,10.72
2024-03-15T23:22:16.146Z,10.76
2024-03-15T23:25:42.351Z,10.80
2024-03-15T23:29:09.453Z,10.83
2024-03-15T23:32:40.426Z,10.85
2024-03-15T23:36:07.734Z,10.90
2024-03-15T23:39:33.955Z,10.94
2024-03-15T23:43:00.239Z,10.97
2024-03-15T23:46:25.797Z,10.97
2024-03-15T23:49:51.530Z,10.94
2024-03-15T23:53:17.039Z,10.90
2024-03-15T23:56:42.887Z,10.84
